sensor_id;sensor_type;location;lat;lon;timestamp;P1;durP1;ratioP1;P2;durP2;ratioP2
10957;SDS011;5531;42.570;23.676;2022-09-13T00:01:39;3.90;;;2.58;;
10957;SDS011;5531;42.570;23.676;2022-09-13T00:04:08;2.85;;;2.55;;
10957;SDS011;5531;42.570;23.676;2022-09-13T00:06:37;2.45;;;2.25;;
10957;SDS011;5531;42.570;23.676;2022-09-13T00:09:07;2.67;;;2.47;;
10957;SDS011;5531;42.570;23.676;2022-09-13T00:11:36;2.80;;;2.60;;
10957;SDS011;5531;42.570;23.676;2022-09-13T00:14:05;2.60;;;2.40;;
10957;SDS011;5531;42.570;23.676;2022-09-13T00:16:37;2.70;;;2.50;;
10957;SDS011;5531;42.570;23.676;2022-09-13T00:19:06;2.58;;;2.38;;
10957;SDS011;5531;42.570;23.676;2022-09-13T00:21:35;2.90;;;2.55;;
10957;SDS011;5531;42.570;23.676;2022-09-13T00:24:04;3.03;;;2.72;;
10957;SDS011;5531;42.570;23.676;2022-09-13T00:26:33;3.00;;;2.50;;
10957;SDS011;5531;42.570;23.676;2022-09-13T00:29:02;2.95;;;2.70;;
10957;SDS011;5531;42.570;23.676;2022-09-13T00:31:31;3.30;;;3.00;;
10957;SDS011;5531;42.570;23.676;2022-09-13T00:34:03;3.30;;;3.00;;
10957;SDS011;5531;42.570;23.676;2022-09-13T00:36:32;2.72;;;2.53;;
10957;SDS011;5531;42.570;23.676;2022-09-13T00:39:01;2.72;;;2.47;;
10957;SDS011;5531;42.570;23.676;2022-09-13T00:41:30;3.08;;;2.78;;
10957;SDS011;5531;42.570;23.676;2022-09-13T00:43:59;2.90;;;2.58;;
10957;SDS011;5531;42.570;23.676;2022-09-13T00:46:32;2.45;;;2.25;;
10957;SDS011;5531;42.570;23.676;2022-09-13T00:49:10;2.85;;;2.60;;
10957;SDS011;5531;42.570;23.676;2022-09-13T00:51:44;2.53;;;2.33;;
10957;SDS011;5531;42.570;23.676;2022-09-13T00:54:16;2.92;;;2.63;;
10957;SDS011;5531;42.570;23.676;2022-09-13T00:56:51;2.42;;;2.13;;
10957;SDS011;5531;42.570;23.676;2022-09-13T00:59:24;2.92;;;2.60;;
10957;SDS011;5531;42.570;23.676;2022-09-13T01:01:57;2.85;;;2.53;;
10957;SDS011;5531;42.570;23.676;2022-09-13T01:04:30;2.67;;;2.47;;
10957;SDS011;5531;42.570;23.676;2022-09-13T01:07:06;3.22;;;2.33;;
10957;SDS011;5531;42.570;23.676;2022-09-13T01:09:38;3.25;;;2.95;;
10957;SDS011;5531;42.570;23.676;2022-09-13T01:12:12;2.53;;;2.33;;
10957;SDS011;5531;42.570;23.676;2022-09-13T01:14:50;3.10;;;2.40;;
10957;SDS011;5531;42.570;23.676;2022-09-13T01:17:20;2.53;;;2.33;;
10957;SDS011;5531;42.570;23.676;2022-09-13T01:19:52;2.80;;;2.30;;
10957;SDS011;5531;42.570;23.676;2022-09-13T01:22:30;2.50;;;2.30;;
10957;SDS011;5531;42.570;23.676;2022-09-13T01:25:26;2.88;;;2.60;;
10957;SDS011;5531;42.570;23.676;2022-09-13T01:31:24;3.90;;;2.30;;
10957;SDS011;5531;42.570;23.676;2022-09-13T01:34:07;3.20;;;2.90;;
10957;SDS011;5531;42.570;23.676;2022-09-13T01:39:58;3.42;;;2.90;;
10957;SDS011;5531;42.570;23.676;2022-09-13T01:42:39;3.03;;;2.72;;
10957;SDS011;5531;42.570;23.676;2022-09-13T01:45:19;3.13;;;2.83;;
10957;SDS011;5531;42.570;23.676;2022-09-13T01:47:59;3.20;;;2.90;;
10957;SDS011;5531;42.570;23.676;2022-09-13T01:50:38;3.17;;;2.88;;
10957;SDS011;5531;42.570;23.676;2022-09-13T01:53:13;4.00;;;3.25;;
10957;SDS011;5531;42.570;23.676;2022-09-13T01:55:54;4.43;;;2.88;;
10957;SDS011;5531;42.570;23.676;2022-09-13T01:58:30;3.22;;;2.90;;
10957;SDS011;5531;42.570;23.676;2022-09-13T02:01:07;3.88;;;3.25;;
10957;SDS011;5531;42.570;23.676;2022-09-13T02:03:46;3.13;;;2.83;;
10957;SDS011;5531;42.570;23.676;2022-09-13T02:06:22;3.25;;;2.95;;
10957;SDS011;5531;42.570;23.676;2022-09-13T02:08:56;3.53;;;3.22;;
10957;SDS011;5531;42.570;23.676;2022-09-13T02:11:29;3.17;;;2.78;;
10957;SDS011;5531;42.570;23.676;2022-09-13T02:14:01;3.53;;;3.20;;
10957;SDS011;5531;42.570;23.676;2022-09-13T02:16:35;3.53;;;3.22;;
10957;SDS011;5531;42.570;23.676;2022-09-13T02:19:13;4.57;;;3.53;;
10957;SDS011;5531;42.570;23.676;2022-09-13T02:21:46;3.55;;;3.25;;
10957;SDS011;5531;42.570;23.676;2022-09-13T02:24:20;3.67;;;3.25;;
10957;SDS011;5531;42.570;23.676;2022-09-13T02:26:52;4.57;;;3.15;;
10957;SDS011;5531;42.570;23.676;2022-09-13T02:29:24;3.33;;;2.78;;
10957;SDS011;5531;42.570;23.676;2022-09-13T02:31:57;3.80;;;3.17;;
10957;SDS011;5531;42.570;23.676;2022-09-13T02:34:35;3.80;;;3.20;;
10957;SDS011;5531;42.570;23.676;2022-09-13T02:37:07;3.38;;;3.08;;
10957;SDS011;5531;42.570;23.676;2022-09-13T02:39:39;3.42;;;3.10;;
10957;SDS011;5531;42.570;23.676;2022-09-13T02:42:16;3.80;;;3.20;;
10957;SDS011;5531;42.570;23.676;2022-09-13T02:44:49;3.60;;;3.30;;
10957;SDS011;5531;42.570;23.676;2022-09-13T02:47:31;3.38;;;2.85;;
10957;SDS011;5531;42.570;23.676;2022-09-13T02:50:14;3.50;;;3.20;;
10957;SDS011;5531;42.570;23.676;2022-09-13T02:52:55;4.75;;;3.10;;
10957;SDS011;5531;42.570;23.676;2022-09-13T02:55:30;3.58;;;3.17;;
10957;SDS011;5531;42.570;23.676;2022-09-13T02:58:08;3.33;;;3.00;;
10957;SDS011;5531;42.570;23.676;2022-09-13T03:00:40;3.92;;;3.22;;
10957;SDS011;5531;42.570;23.676;2022-09-13T03:03:11;4.60;;;3.60;;
10957;SDS011;5531;42.570;23.676;2022-09-13T03:05:46;3.70;;;3.10;;
10957;SDS011;5531;42.570;23.676;2022-09-13T03:08:15;3.45;;;3.15;;
10957;SDS011;5531;42.570;23.676;2022-09-13T03:10:47;4.00;;;3.10;;
10957;SDS011;5531;42.570;23.676;2022-09-13T03:13:33;4.57;;;3.50;;
10957;SDS011;5531;42.570;23.676;2022-09-13T03:16:20;3.72;;;3.33;;
10957;SDS011;5531;42.570;23.676;2022-09-13T03:19:04;4.30;;;3.58;;
10957;SDS011;5531;42.570;23.676;2022-09-13T03:21:57;3.42;;;3.10;;
10957;SDS011;5531;42.570;23.676;2022-09-13T03:24:42;4.68;;;3.15;;
10957;SDS011;5531;42.570;23.676;2022-09-13T03:27:21;3.63;;;3.25;;
10957;SDS011;5531;42.570;23.676;2022-09-13T03:30:02;3.53;;;3.22;;
10957;SDS011;5531;42.570;23.676;2022-09-13T03:32:34;4.72;;;4.03;;
10957;SDS011;5531;42.570;23.676;2022-09-13T03:35:15;4.00;;;3.50;;
10957;SDS011;5531;42.570;23.676;2022-09-13T03:37:56;3.80;;;3.40;;
10957;SDS011;5531;42.570;23.676;2022-09-13T03:40:33;4.00;;;3.38;;
10957;SDS011;5531;42.570;23.676;2022-09-13T03:43:08;5.97;;;3.70;;
10957;SDS011;5531;42.570;23.676;2022-09-13T03:45:41;3.70;;;3.30;;
10957;SDS011;5531;42.570;23.676;2022-09-13T03:48:13;4.75;;;3.80;;
10957;SDS011;5531;42.570;23.676;2022-09-13T03:50:44;4.38;;;3.75;;
10957;SDS011;5531;42.570;23.676;2022-09-13T03:53:18;4.25;;;3.85;;
10957;SDS011;5531;42.570;23.676;2022-09-13T03:55:50;4.53;;;3.83;;
10957;SDS011;5531;42.570;23.676;2022-09-13T03:58:20;4.28;;;3.80;;
10957;SDS011;5531;42.570;23.676;2022-09-13T04:00:49;4.07;;;3.67;;
10957;SDS011;5531;42.570;23.676;2022-09-13T04:03:19;4.20;;;3.80;;
10957;SDS011;5531;42.570;23.676;2022-09-13T04:05:48;4.82;;;3.75;;
10957;SDS011;5531;42.570;23.676;2022-09-13T04:08:20;4.43;;;3.88;;
10957;SDS011;5531;42.570;23.676;2022-09-13T04:10:49;4.63;;;3.92;;
10957;SDS011;5531;42.570;23.676;2022-09-13T04:13:19;4.55;;;4.07;;
10957;SDS011;5531;42.570;23.676;2022-09-13T04:15:48;4.57;;;3.90;;
10957;SDS011;5531;42.570;23.676;2022-09-13T04:18:17;5.22;;;4.50;;
10957;SDS011;5531;42.570;23.676;2022-09-13T04:20:52;5.35;;;4.22;;
10957;SDS011;5531;42.570;23.676;2022-09-13T04:23:25;5.25;;;3.90;;
10957;SDS011;5531;42.570;23.676;2022-09-13T04:25:59;4.38;;;3.97;;
10957;SDS011;5531;42.570;23.676;2022-09-13T04:28:29;4.82;;;4.20;;
10957;SDS011;5531;42.570;23.676;2022-09-13T04:30:58;4.75;;;3.80;;
10957;SDS011;5531;42.570;23.676;2022-09-13T04:33:27;5.38;;;3.78;;
10957;SDS011;5531;42.570;23.676;2022-09-13T04:35:56;5.20;;;4.18;;
10957;SDS011;5531;42.570;23.676;2022-09-13T04:38:29;4.15;;;3.75;;
10957;SDS011;5531;42.570;23.676;2022-09-13T04:40:58;4.28;;;3.63;;
10957;SDS011;5531;42.570;23.676;2022-09-13T04:43:27;4.40;;;3.95;;
10957;SDS011;5531;42.570;23.676;2022-09-13T04:45:58;4.07;;;3.65;;
10957;SDS011;5531;42.570;23.676;2022-09-13T04:48:28;5.03;;;4.10;;
10957;SDS011;5531;42.570;23.676;2022-09-13T04:51:00;4.97;;;4.03;;
10957;SDS011;5531;42.570;23.676;2022-09-13T04:53:32;3.88;;;3.47;;
10957;SDS011;5531;42.570;23.676;2022-09-13T04:56:02;4.00;;;3.60;;
10957;SDS011;5531;42.570;23.676;2022-09-13T04:58:33;4.28;;;3.75;;
10957;SDS011;5531;42.570;23.676;2022-09-13T05:01:03;4.45;;;3.90;;
10957;SDS011;5531;42.570;23.676;2022-09-13T05:03:33;5.38;;;3.83;;
10957;SDS011;5531;42.570;23.676;2022-09-13T05:06:04;4.43;;;3.85;;
10957;SDS011;5531;42.570;23.676;2022-09-13T05:08:37;4.63;;;4.13;;
10957;SDS011;5531;42.570;23.676;2022-09-13T05:11:07;4.68;;;3.90;;
10957;SDS011;5531;42.570;23.676;2022-09-13T05:13:36;4.65;;;4.07;;
10957;SDS011;5531;42.570;23.676;2022-09-13T05:16:05;4.65;;;3.90;;
10957;SDS011;5531;42.570;23.676;2022-09-13T05:18:35;4.57;;;3.53;;
10957;SDS011;5531;42.570;23.676;2022-09-13T05:21:04;4.70;;;3.83;;
10957;SDS011;5531;42.570;23.676;2022-09-13T05:23:33;5.32;;;3.78;;
10957;SDS011;5531;42.570;23.676;2022-09-13T05:26:05;4.65;;;3.55;;
10957;SDS011;5531;42.570;23.676;2022-09-13T05:28:35;4.55;;;3.80;;
10957;SDS011;5531;42.570;23.676;2022-09-13T05:31:06;5.28;;;3.70;;
10957;SDS011;5531;42.570;23.676;2022-09-13T05:33:36;4.25;;;3.45;;
10957;SDS011;5531;42.570;23.676;2022-09-13T05:36:06;4.15;;;3.72;;
10957;SDS011;5531;42.570;23.676;2022-09-13T05:38:35;4.70;;;3.33;;
10957;SDS011;5531;42.570;23.676;2022-09-13T05:41:07;4.35;;;3.58;;
10957;SDS011;5531;42.570;23.676;2022-09-13T05:43:36;3.88;;;3.45;;
10957;SDS011;5531;42.570;23.676;2022-09-13T05:46:05;4.05;;;3.65;;
10957;SDS011;5531;42.570;23.676;2022-09-13T05:48:37;4.03;;;3.63;;
10957;SDS011;5531;42.570;23.676;2022-09-13T05:51:07;4.57;;;3.65;;
10957;SDS011;5531;42.570;23.676;2022-09-13T05:53:37;5.13;;;3.55;;
10957;SDS011;5531;42.570;23.676;2022-09-13T05:56:11;4.55;;;3.67;;
10957;SDS011;5531;42.570;23.676;2022-09-13T05:58:42;4.22;;;3.50;;
10957;SDS011;5531;42.570;23.676;2022-09-13T06:01:13;5.13;;;4.00;;
10957;SDS011;5531;42.570;23.676;2022-09-13T06:03:45;4.90;;;3.80;;
10957;SDS011;5531;42.570;23.676;2022-09-13T06:06:15;3.50;;;3.20;;
10957;SDS011;5531;42.570;23.676;2022-09-13T06:08:44;5.10;;;3.50;;
10957;SDS011;5531;42.570;23.676;2022-09-13T06:11:16;3.67;;;3.15;;
10957;SDS011;5531;42.570;23.676;2022-09-13T06:13:45;4.05;;;3.40;;
10957;SDS011;5531;42.570;23.676;2022-09-13T06:16:14;3.40;;;3.10;;
10957;SDS011;5531;42.570;23.676;2022-09-13T06:18:44;4.93;;;2.90;;
10957;SDS011;5531;42.570;23.676;2022-09-13T06:21:13;4.50;;;2.72;;
10957;SDS011;5531;42.570;23.676;2022-09-13T06:23:44;4.30;;;3.00;;
10957;SDS011;5531;42.570;23.676;2022-09-13T06:26:14;3.17;;;2.88;;
10957;SDS011;5531;42.570;23.676;2022-09-13T06:28:47;3.38;;;2.90;;
10957;SDS011;5531;42.570;23.676;2022-09-13T06:31:17;3.00;;;2.63;;
10957;SDS011;5531;42.570;23.676;2022-09-13T06:33:48;4.60;;;2.95;;
10957;SDS011;5531;42.570;23.676;2022-09-13T06:36:23;2.90;;;2.60;;
10957;SDS011;5531;42.570;23.676;2022-09-13T06:38:52;3.17;;;2.88;;
10957;SDS011;5531;42.570;23.676;2022-09-13T06:41:25;3.13;;;2.42;;
10957;SDS011;5531;42.570;23.676;2022-09-13T06:43:54;4.10;;;2.83;;
10957;SDS011;5531;42.570;23.676;2022-09-13T06:46:26;3.15;;;2.80;;
10957;SDS011;5531;42.570;23.676;2022-09-13T06:48:57;4.43;;;3.50;;
10957;SDS011;5531;42.570;23.676;2022-09-13T06:51:27;3.50;;;2.47;;
10957;SDS011;5531;42.570;23.676;2022-09-13T06:53:57;2.80;;;2.47;;
10957;SDS011;5531;42.570;23.676;2022-09-13T06:56:31;2.50;;;2.30;;
10957;SDS011;5531;42.570;23.676;2022-09-13T06:59:02;4.30;;;2.90;;
10957;SDS011;5531;42.570;23.676;2022-09-13T07:01:32;3.42;;;2.53;;
10957;SDS011;5531;42.570;23.676;2022-09-13T07:04:02;3.30;;;2.67;;
10957;SDS011;5531;42.570;23.676;2022-09-13T07:06:35;3.13;;;2.78;;
10957;SDS011;5531;42.570;23.676;2022-09-13T07:09:06;3.22;;;2.65;;
10957;SDS011;5531;42.570;23.676;2022-09-13T07:11:40;3.65;;;2.85;;
10957;SDS011;5531;42.570;23.676;2022-09-13T07:14:11;4.20;;;2.47;;
10957;SDS011;5531;42.570;23.676;2022-09-13T07:16:42;2.60;;;2.40;;
10957;SDS011;5531;42.570;23.676;2022-09-13T07:19:12;3.00;;;2.70;;
10957;SDS011;5531;42.570;23.676;2022-09-13T07:21:47;2.50;;;2.30;;
10957;SDS011;5531;42.570;23.676;2022-09-13T07:24:17;2.35;;;2.10;;
10957;SDS011;5531;42.570;23.676;2022-09-13T07:26:50;2.78;;;2.25;;
10957;SDS011;5531;42.570;23.676;2022-09-13T07:29:20;2.65;;;2.45;;
10957;SDS011;5531;42.570;23.676;2022-09-13T07:31:50;3.95;;;3.50;;
10957;SDS011;5531;42.570;23.676;2022-09-13T07:34:21;2.67;;;2.40;;
10957;SDS011;5531;42.570;23.676;2022-09-13T07:36:52;2.55;;;2.03;;
10957;SDS011;5531;42.570;23.676;2022-09-13T07:39:21;2.20;;;2.10;;
10957;SDS011;5531;42.570;23.676;2022-09-13T07:41:53;2.22;;;1.98;;
10957;SDS011;5531;42.570;23.676;2022-09-13T07:44:22;3.05;;;1.90;;
10957;SDS011;5531;42.570;23.676;2022-09-13T07:46:50;2.38;;;2.00;;
10957;SDS011;5531;42.570;23.676;2022-09-13T07:49:19;2.30;;;2.10;;
10957;SDS011;5531;42.570;23.676;2022-09-13T07:51:48;2.15;;;1.90;;
10957;SDS011;5531;42.570;23.676;2022-09-13T07:54:18;2.08;;;1.88;;
10957;SDS011;5531;42.570;23.676;2022-09-13T07:56:47;1.92;;;1.80;;
10957;SDS011;5531;42.570;23.676;2022-09-13T07:59:19;3.00;;;2.03;;
10957;SDS011;5531;42.570;23.676;2022-09-13T08:01:49;2.17;;;1.90;;
10957;SDS011;5531;42.570;23.676;2022-09-13T08:04:19;2.10;;;1.90;;
10957;SDS011;5531;42.570;23.676;2022-09-13T08:06:52;2.28;;;2.08;;
10957;SDS011;5531;42.570;23.676;2022-09-13T08:09:21;1.85;;;1.75;;
10957;SDS011;5531;42.570;23.676;2022-09-13T08:11:50;2.03;;;1.83;;
10957;SDS011;5531;42.570;23.676;2022-09-13T08:14:22;1.92;;;1.70;;
10957;SDS011;5531;42.570;23.676;2022-09-13T08:16:53;1.60;;;1.50;;
10957;SDS011;5531;42.570;23.676;2022-09-13T08:19:23;1.80;;;1.58;;
10957;SDS011;5531;42.570;23.676;2022-09-13T08:21:52;2.05;;;1.77;;
10957;SDS011;5531;42.570;23.676;2022-09-13T08:24:21;1.85;;;1.73;;
10957;SDS011;5531;42.570;23.676;2022-09-13T08:26:52;2.08;;;1.80;;
10957;SDS011;5531;42.570;23.676;2022-09-13T08:29:25;1.88;;;1.77;;
10957;SDS011;5531;42.570;23.676;2022-09-13T08:31:54;2.25;;;1.70;;
10957;SDS011;5531;42.570;23.676;2022-09-13T08:34:23;1.70;;;1.60;;
10957;SDS011;5531;42.570;23.676;2022-09-13T08:36:52;1.65;;;1.55;;
10957;SDS011;5531;42.570;23.676;2022-09-13T08:39:22;2.53;;;1.80;;
10957;SDS011;5531;42.570;23.676;2022-09-13T08:42:02;2.00;;;1.80;;
10957;SDS011;5531;42.570;23.676;2022-09-13T08:44:43;1.60;;;1.50;;
10957;SDS011;5531;42.570;23.676;2022-09-13T08:47:21;2.28;;;1.50;;
10957;SDS011;5531;42.570;23.676;2022-09-13T08:50:09;2.20;;;1.38;;
10957;SDS011;5531;42.570;23.676;2022-09-13T08:52:45;1.27;;;1.10;;
10957;SDS011;5531;42.570;23.676;2022-09-13T08:55:35;1.40;;;1.30;;
10957;SDS011;5531;42.570;23.676;2022-09-13T08:58:24;1.30;;;1.20;;
10957;SDS011;5531;42.570;23.676;2022-09-13T09:01:27;1.33;;;1.23;;
10957;SDS011;5531;42.570;23.676;2022-09-13T09:04:07;1.67;;;1.30;;
10957;SDS011;5531;42.570;23.676;2022-09-13T09:06:43;1.27;;;1.20;;
10957;SDS011;5531;42.570;23.676;2022-09-13T09:09:13;1.88;;;1.45;;
10957;SDS011;5531;42.570;23.676;2022-09-13T09:11:46;1.50;;;1.40;;
10957;SDS011;5531;42.570;23.676;2022-09-13T09:14:21;1.25;;;1.15;;
10957;SDS011;5531;42.570;23.676;2022-09-13T09:17:01;1.30;;;1.20;;
10957;SDS011;5531;42.570;23.676;2022-09-13T09:19:33;1.30;;;1.20;;
10957;SDS011;5531;42.570;23.676;2022-09-13T09:22:10;1.20;;;1.10;;
10957;SDS011;5531;42.570;23.676;2022-09-13T09:24:44;1.20;;;1.10;;
10957;SDS011;5531;42.570;23.676;2022-09-13T09:27:17;1.40;;;1.30;;
10957;SDS011;5531;42.570;23.676;2022-09-13T09:29:48;1.33;;;1.23;;
10957;SDS011;5531;42.570;23.676;2022-09-13T09:32:30;1.33;;;1.23;;
10957;SDS011;5531;42.570;23.676;2022-09-13T09:35:16;1.63;;;1.40;;
10957;SDS011;5531;42.570;23.676;2022-09-13T09:38:03;1.50;;;1.40;;
10957;SDS011;5531;42.570;23.676;2022-09-13T09:40:46;1.20;;;1.10;;
10957;SDS011;5531;42.570;23.676;2022-09-13T09:43:16;1.30;;;1.20;;
10957;SDS011;5531;42.570;23.676;2022-09-13T09:45:51;1.27;;;1.17;;
10957;SDS011;5531;42.570;23.676;2022-09-13T09:48:26;1.52;;;1.30;;
10957;SDS011;5531;42.570;23.676;2022-09-13T09:51:02;1.60;;;1.48;;
10957;SDS011;5531;42.570;23.676;2022-09-13T09:53:35;1.40;;;1.30;;
10957;SDS011;5531;42.570;23.676;2022-09-13T09:56:14;1.30;;;1.20;;
10957;SDS011;5531;42.570;23.676;2022-09-13T09:58:51;1.50;;;1.40;;
10957;SDS011;5531;42.570;23.676;2022-09-13T10:01:22;1.33;;;1.05;;
10957;SDS011;5531;42.570;23.676;2022-09-13T10:03:56;1.38;;;1.27;;
10957;SDS011;5531;42.570;23.676;2022-09-13T10:06:33;1.30;;;1.20;;
10957;SDS011;5531;42.570;23.676;2022-09-13T10:09:04;1.20;;;1.10;;
10957;SDS011;5531;42.570;23.676;2022-09-13T10:11:37;1.40;;;1.30;;
10957;SDS011;5531;42.570;23.676;2022-09-13T10:17:04;1.20;;;1.10;;
10957;SDS011;5531;42.570;23.676;2022-09-13T10:19:56;0.90;;;0.90;;
10957;SDS011;5531;42.570;23.676;2022-09-13T10:22:28;1.20;;;1.10;;
10957;SDS011;5531;42.570;23.676;2022-09-13T10:25:13;1.00;;;1.00;;
10957;SDS011;5531;42.570;23.676;2022-09-13T10:27:46;1.05;;;0.95;;
10957;SDS011;5531;42.570;23.676;2022-09-13T10:30:28;1.00;;;1.00;;
10957;SDS011;5531;42.570;23.676;2022-09-13T10:33:00;1.15;;;1.05;;
10957;SDS011;5531;42.570;23.676;2022-09-13T10:35:33;1.00;;;0.98;;
10957;SDS011;5531;42.570;23.676;2022-09-13T10:38:02;1.00;;;0.93;;
10957;SDS011;5531;42.570;23.676;2022-09-13T10:40:31;0.85;;;0.85;;
10957;SDS011;5531;42.570;23.676;2022-09-13T10:43:04;1.20;;;1.10;;
10957;SDS011;5531;42.570;23.676;2022-09-13T10:45:44;1.10;;;1.02;;
10957;SDS011;5531;42.570;23.676;2022-09-13T10:48:17;1.08;;;1.00;;
10957;SDS011;5531;42.570;23.676;2022-09-13T10:51:07;1.20;;;1.10;;
10957;SDS011;5531;42.570;23.676;2022-09-13T10:53:47;1.00;;;1.00;;
10957;SDS011;5531;42.570;23.676;2022-09-13T10:56:20;1.20;;;1.10;;
10957;SDS011;5531;42.570;23.676;2022-09-13T10:58:50;1.30;;;1.20;;
10957;SDS011;5531;42.570;23.676;2022-09-13T11:01:41;1.25;;;1.10;;
10957;SDS011;5531;42.570;23.676;2022-09-13T11:04:24;1.50;;;1.40;;
10957;SDS011;5531;42.570;23.676;2022-09-13T11:07:10;1.08;;;1.00;;
10957;SDS011;5531;42.570;23.676;2022-09-13T11:09:50;1.10;;;1.10;;
10957;SDS011;5531;42.570;23.676;2022-09-13T11:12:29;1.20;;;1.10;;
10957;SDS011;5531;42.570;23.676;2022-09-13T11:15:09;1.50;;;1.20;;
10957;SDS011;5531;42.570;23.676;2022-09-13T11:18:01;1.20;;;1.10;;
10957;SDS011;5531;42.570;23.676;2022-09-13T11:20:53;1.20;;;1.10;;
10957;SDS011;5531;42.570;23.676;2022-09-13T11:23:40;1.30;;;1.20;;
10957;SDS011;5531;42.570;23.676;2022-09-13T11:26:26;2.35;;;1.27;;
10957;SDS011;5531;42.570;23.676;2022-09-13T11:29:09;1.55;;;1.20;;
10957;SDS011;5531;42.570;23.676;2022-09-13T11:31:49;1.25;;;1.15;;
10957;SDS011;5531;42.570;23.676;2022-09-13T11:34:29;0.90;;;0.90;;
10957;SDS011;5531;42.570;23.676;2022-09-13T11:37:10;1.30;;;1.20;;
10957;SDS011;5531;42.570;23.676;2022-09-13T11:39:51;1.27;;;1.17;;
10957;SDS011;5531;42.570;23.676;2022-09-13T11:42:35;1.20;;;1.10;;
10957;SDS011;5531;42.570;23.676;2022-09-13T11:45:17;1.40;;;1.30;;
10957;SDS011;5531;42.570;23.676;2022-09-13T11:47:56;1.50;;;1.40;;
10957;SDS011;5531;42.570;23.676;2022-09-13T11:50:46;1.10;;;1.00;;
10957;SDS011;5531;42.570;23.676;2022-09-13T11:56:29;1.30;;;1.20;;
10957;SDS011;5531;42.570;23.676;2022-09-13T11:59:07;1.87;;;1.30;;
10957;SDS011;5531;42.570;23.676;2022-09-13T12:01:44;1.30;;;1.20;;
10957;SDS011;5531;42.570;23.676;2022-09-13T12:04:18;1.60;;;1.50;;
10957;SDS011;5531;42.570;23.676;2022-09-13T12:06:53;1.30;;;1.20;;
10957;SDS011;5531;42.570;23.676;2022-09-13T12:09:27;1.30;;;1.20;;
10957;SDS011;5531;42.570;23.676;2022-09-13T12:12:05;1.35;;;1.25;;
10957;SDS011;5531;42.570;23.676;2022-09-13T12:14:40;1.35;;;1.25;;
10957;SDS011;5531;42.570;23.676;2022-09-13T12:17:16;1.63;;;1.33;;
10957;SDS011;5531;42.570;23.676;2022-09-13T12:19:54;1.50;;;1.40;;
10957;SDS011;5531;42.570;23.676;2022-09-13T12:22:26;1.60;;;1.50;;
10957;SDS011;5531;42.570;23.676;2022-09-13T12:25:02;1.60;;;1.50;;
10957;SDS011;5531;42.570;23.676;2022-09-13T12:27:37;1.30;;;1.20;;
10957;SDS011;5531;42.570;23.676;2022-09-13T12:30:13;1.50;;;1.40;;
10957;SDS011;5531;42.570;23.676;2022-09-13T12:32:45;1.30;;;1.20;;
10957;SDS011;5531;42.570;23.676;2022-09-13T12:35:18;1.42;;;1.33;;
10957;SDS011;5531;42.570;23.676;2022-09-13T12:37:58;1.58;;;1.40;;
10957;SDS011;5531;42.570;23.676;2022-09-13T12:40:43;1.60;;;1.50;;
10957;SDS011;5531;42.570;23.676;2022-09-13T12:43:40;1.50;;;1.40;;
10957;SDS011;5531;42.570;23.676;2022-09-13T12:46:30;1.67;;;1.58;;
10957;SDS011;5531;42.570;23.676;2022-09-13T12:49:29;1.52;;;1.42;;
10957;SDS011;5531;42.570;23.676;2022-09-13T12:52:16;1.30;;;1.20;;
10957;SDS011;5531;42.570;23.676;2022-09-13T13:01:12;1.95;;;1.30;;
10957;SDS011;5531;42.570;23.676;2022-09-13T13:03:45;1.38;;;1.27;;
10957;SDS011;5531;42.570;23.676;2022-09-13T13:06:23;1.50;;;1.40;;
10957;SDS011;5531;42.570;23.676;2022-09-13T13:08:59;1.50;;;1.40;;
10957;SDS011;5531;42.570;23.676;2022-09-13T13:11:40;1.50;;;1.40;;
10957;SDS011;5531;42.570;23.676;2022-09-13T13:23:13;1.42;;;1.33;;
10957;SDS011;5531;42.570;23.676;2022-09-13T13:25:55;1.45;;;1.35;;
10957;SDS011;5531;42.570;23.676;2022-09-13T13:31:34;1.23;;;1.15;;
10957;SDS011;5531;42.570;23.676;2022-09-13T13:37:03;1.50;;;1.40;;
10957;SDS011;5531;42.570;23.676;2022-09-13T13:42:50;1.60;;;1.50;;
10957;SDS011;5531;42.570;23.676;2022-09-13T13:45:55;1.15;;;1.05;;
10957;SDS011;5531;42.570;23.676;2022-09-13T13:48:36;1.50;;;1.30;;
10957;SDS011;5531;42.570;23.676;2022-09-13T13:51:19;1.48;;;1.38;;
10957;SDS011;5531;42.570;23.676;2022-09-13T13:53:58;1.40;;;1.20;;
10957;SDS011;5531;42.570;23.676;2022-09-13T13:56:44;1.38;;;1.27;;
10957;SDS011;5531;42.570;23.676;2022-09-13T13:59:25;1.30;;;1.20;;
10957;SDS011;5531;42.570;23.676;2022-09-13T14:01:59;1.30;;;1.20;;
10957;SDS011;5531;42.570;23.676;2022-09-13T14:04:43;1.10;;;1.00;;
10957;SDS011;5531;42.570;23.676;2022-09-13T14:07:45;1.42;;;1.33;;
10957;SDS011;5531;42.570;23.676;2022-09-13T14:10:27;1.23;;;1.13;;
10957;SDS011;5531;42.570;23.676;2022-09-13T14:13:16;1.45;;;1.30;;
10957;SDS011;5531;42.570;23.676;2022-09-13T14:16:01;1.38;;;1.20;;
10957;SDS011;5531;42.570;23.676;2022-09-13T14:18:44;1.30;;;1.20;;
10957;SDS011;5531;42.570;23.676;2022-09-13T14:21:23;1.33;;;1.20;;
10957;SDS011;5531;42.570;23.676;2022-09-13T14:26:48;1.73;;;1.23;;
10957;SDS011;5531;42.570;23.676;2022-09-13T14:29:20;1.50;;;1.40;;
10957;SDS011;5531;42.570;23.676;2022-09-13T14:31:51;1.23;;;1.13;;
10957;SDS011;5531;42.570;23.676;2022-09-13T14:34:21;1.40;;;1.30;;
10957;SDS011;5531;42.570;23.676;2022-09-13T14:36:55;1.83;;;1.52;;
10957;SDS011;5531;42.570;23.676;2022-09-13T14:39:28;1.40;;;1.30;;
10957;SDS011;5531;42.570;23.676;2022-09-13T14:41:58;1.40;;;1.30;;
10957;SDS011;5531;42.570;23.676;2022-09-13T14:44:28;1.38;;;1.27;;
10957;SDS011;5531;42.570;23.676;2022-09-13T14:46:59;1.30;;;1.20;;
10957;SDS011;5531;42.570;23.676;2022-09-13T14:49:34;1.40;;;1.30;;
10957;SDS011;5531;42.570;23.676;2022-09-13T14:52:07;1.27;;;1.17;;
10957;SDS011;5531;42.570;23.676;2022-09-13T14:54:46;1.73;;;1.50;;
10957;SDS011;5531;42.570;23.676;2022-09-13T14:57:20;1.70;;;1.50;;
10957;SDS011;5531;42.570;23.676;2022-09-13T14:59:55;1.50;;;1.40;;
10957;SDS011;5531;42.570;23.676;2022-09-13T15:02:28;1.40;;;1.30;;
10957;SDS011;5531;42.570;23.676;2022-09-13T15:05:03;1.70;;;1.35;;
10957;SDS011;5531;42.570;23.676;2022-09-13T15:07:36;1.15;;;1.10;;
10957;SDS011;5531;42.570;23.676;2022-09-13T15:10:18;1.40;;;1.30;;
10957;SDS011;5531;42.570;23.676;2022-09-13T15:12:51;1.30;;;1.20;;
10957;SDS011;5531;42.570;23.676;2022-09-13T15:15:25;1.30;;;1.20;;
10957;SDS011;5531;42.570;23.676;2022-09-13T15:18:01;1.00;;;1.00;;
10957;SDS011;5531;42.570;23.676;2022-09-13T15:23:21;1.20;;;1.10;;
10957;SDS011;5531;42.570;23.676;2022-09-13T15:25:57;1.40;;;1.30;;
10957;SDS011;5531;42.570;23.676;2022-09-13T15:28:33;1.15;;;1.13;;
10957;SDS011;5531;42.570;23.676;2022-09-13T15:31:19;1.30;;;1.20;;
10957;SDS011;5531;42.570;23.676;2022-09-13T15:36:39;1.98;;;1.30;;
10957;SDS011;5531;42.570;23.676;2022-09-13T15:39:12;1.45;;;1.30;;
10957;SDS011;5531;42.570;23.676;2022-09-13T15:41:53;1.58;;;1.48;;
10957;SDS011;5531;42.570;23.676;2022-09-13T15:44:23;1.60;;;1.50;;
10957;SDS011;5531;42.570;23.676;2022-09-13T15:46:54;1.70;;;1.50;;
10957;SDS011;5531;42.570;23.676;2022-09-13T15:49:29;1.40;;;1.30;;
10957;SDS011;5531;42.570;23.676;2022-09-13T15:52:00;1.70;;;1.60;;
10957;SDS011;5531;42.570;23.676;2022-09-13T15:54:31;2.55;;;1.52;;
10957;SDS011;5531;42.570;23.676;2022-09-13T15:57:06;1.63;;;1.45;;
10957;SDS011;5531;42.570;23.676;2022-09-13T15:59:37;1.73;;;1.63;;
10957;SDS011;5531;42.570;23.676;2022-09-13T16:02:13;1.70;;;1.60;;
10957;SDS011;5531;42.570;23.676;2022-09-13T16:04:45;1.75;;;1.65;;
10957;SDS011;5531;42.570;23.676;2022-09-13T16:07:14;1.95;;;1.63;;
10957;SDS011;5531;42.570;23.676;2022-09-13T16:09:44;1.50;;;1.40;;
10957;SDS011;5531;42.570;23.676;2022-09-13T16:12:16;1.58;;;1.45;;
10957;SDS011;5531;42.570;23.676;2022-09-13T16:14:48;1.50;;;1.40;;
10957;SDS011;5531;42.570;23.676;2022-09-13T16:17:19;2.22;;;1.75;;
10957;SDS011;5531;42.570;23.676;2022-09-13T16:19:50;1.85;;;1.75;;